createdAt,value
2023-03-26T00:00:10.591Z,0.00
2023-03-26T00:01:11.623Z,0.00
2023-03-26T00:03:43.249Z,8.00
2023-03-26T00:04:43.236Z,8.00
2023-03-26T00:05:44.454Z,0.00
2023-03-26T00:06:43.230Z,0.00
2023-03-26T00:07:43.209Z,0.00
2023-03-26T00:08:43.235Z,0.00
2023-03-26T00:09:43.180Z,0.00
2023-03-26T00:10:43.166Z,0.00
2023-03-26T00:11:43.179Z,0.00
2023-03-26T00:12:43.147Z,0.00
2023-03-26T00:13:43.264Z,0.00
2023-03-26T00:14:43.126Z,0.00
2023-03-26T00:15:43.120Z,0.00
2023-03-26T00:16:43.147Z,0.00
2023-03-26T00:17:43.133Z,0.00
2023-03-26T00:18:43.089Z,0.00
2023-03-26T00:19:43.096Z,0.00
2023-03-26T00:20:43.084Z,0.00
2023-03-26T00:21:43.061Z,0.00
2023-03-26T00:22:43.035Z,0.00
2023-03-26T00:23:43.028Z,0.00
2023-03-26T00:24:43.011Z,0.00
2023-03-26T00:25:43.003Z,0.00
2023-03-26T00:26:43.012Z,0.00
2023-03-26T00:27:43.001Z,0.00
2023-03-26T00:28:42.967Z,0.00
2023-03-26T00:29:42.965Z,0.00
2023-03-26T00:30:42.968Z,0.00
2023-03-26T00:31:42.956Z,0.00
2023-03-26T00:32:42.980Z,0.00
2023-03-26T00:33:42.917Z,0.00
2023-03-26T00:34:42.911Z,0.00
2023-03-26T00:35:42.907Z,0.00
2023-03-26T00:36:42.895Z,0.00
2023-03-26T00:37:42.881Z,0.00
2023-03-26T00:38:42.873Z,0.00
2023-03-26T00:39:42.863Z,0.00
2023-03-26T00:40:42.838Z,0.00
2023-03-26T00:41:42.870Z,0.00
2023-03-26T00:42:42.814Z,0.00
2023-03-26T00:43:42.812Z,0.00
2023-03-26T00:44:42.796Z,0.00
2023-03-26T00:45:42.879Z,0.00
2023-03-26T00:46:42.875Z,0.00
2023-03-26T00:47:42.845Z,0.00
2023-03-26T00:48:45.437Z,0.00
2023-03-26T00:49:42.745Z,0.00
2023-03-26T00:50:42.732Z,0.00
2023-03-26T00:51:42.742Z,0.00
2023-03-26T00:52:42.715Z,0.00
2023-03-26T00:53:42.704Z,0.00
2023-03-26T00:54:42.689Z,0.00
2023-03-26T00:55:42.685Z,0.00
2023-03-26T00:56:42.713Z,0.00
2023-03-26T00:57:42.661Z,0.00
2023-03-26T00:58:42.677Z,0.00
2023-03-26T00:59:42.641Z,0.00
2023-03-26T01:00:43.208Z,0.00
2023-03-26T01:01:42.653Z,0.00
2023-03-26T01:02:42.716Z,0.00
2023-03-26T01:03:50.173Z,0.00
2023-03-26T01:04:43.609Z,0.00
2023-03-26T01:05:42.594Z,0.00
2023-03-26T01:06:42.564Z,0.00
2023-03-26T01:07:42.572Z,0.00
2023-03-26T01:08:42.558Z,0.00
2023-03-26T01:09:42.548Z,0.00
2023-03-26T01:10:42.522Z,0.00
2023-03-26T01:11:42.514Z,0.00
2023-03-26T01:12:42.510Z,0.00
2023-03-26T01:13:42.488Z,0.00
2023-03-26T01:14:42.477Z,0.00
2023-03-26T01:15:42.511Z,0.00
2023-03-26T01:16:42.469Z,0.00
2023-03-26T01:17:42.512Z,0.00
2023-03-26T01:18:42.435Z,0.00
2023-03-26T01:19:42.436Z,0.00
2023-03-26T01:20:42.415Z,0.00
2023-03-26T01:21:42.408Z,0.00
2023-03-26T01:22:42.408Z,0.00
2023-03-26T01:23:42.387Z,0.00
2023-03-26T01:24:42.372Z,0.00
2023-03-26T01:25:42.364Z,0.00
2023-03-26T01:26:42.348Z,0.00
2023-03-26T01:27:42.354Z,0.00
2023-03-26T01:28:42.327Z,0.00
2023-03-26T01:29:42.324Z,0.00
2023-03-26T01:30:42.375Z,0.00
2023-03-26T01:31:42.296Z,0.00
2023-03-26T01:32:42.366Z,0.00
2023-03-26T01:33:42.332Z,0.00
2023-03-26T01:34:42.259Z,0.00
2023-03-26T01:35:42.265Z,0.00
2023-03-26T01:36:42.238Z,0.00
2023-03-26T01:37:42.242Z,0.00
2023-03-26T01:38:42.216Z,0.00
2023-03-26T01:39:42.361Z,0.00
2023-03-26T01:40:42.206Z,0.00
2023-03-26T01:41:42.188Z,0.00
2023-03-26T01:42:42.182Z,0.00
2023-03-26T01:43:42.205Z,0.00
2023-03-26T01:44:42.156Z,0.00
2023-03-26T01:45:42.146Z,0.00
2023-03-26T01:46:42.176Z,0.00
2023-03-26T01:47:42.175Z,0.00
2023-03-26T01:48:42.112Z,0.00
2023-03-26T01:49:42.107Z,0.00
2023-03-26T01:50:42.092Z,0.00
2023-03-26T01:51:42.087Z,0.00
2023-03-26T01:52:42.084Z,0.00
2023-03-26T01:53:42.063Z,0.00
2023-03-26T01:54:42.053Z,0.00
2023-03-26T01:55:42.046Z,0.00
2023-03-26T01:56:42.068Z,0.00
2023-03-26T01:57:42.040Z,0.00
2023-03-26T01:58:42.029Z,0.00
2023-03-26T01:59:42.003Z,0.00
2023-03-26T02:00:42.017Z,0.00
2023-03-26T02:01:42.059Z,0.00
2023-03-26T02:02:42.089Z,0.00
2023-03-26T02:03:42.029Z,0.00
2023-03-26T02:04:41.962Z,0.00
2023-03-26T02:05:41.945Z,0.00
2023-03-26T02:06:41.938Z,0.00
2023-03-26T02:07:41.917Z,0.00
2023-03-26T02:08:41.925Z,0.00
2023-03-26T02:09:41.899Z,0.00
2023-03-26T02:10:41.891Z,0.00
2023-03-26T02:11:41.902Z,0.00
2023-03-26T02:12:41.875Z,0.00
2023-03-26T02:13:41.879Z,0.00
2023-03-26T02:14:41.857Z,0.00
2023-03-26T02:15:41.839Z,0.00
2023-03-26T02:16:41.870Z,0.00
2023-03-26T02:17:41.851Z,0.00
2023-03-26T02:18:41.851Z,0.00
2023-03-26T02:19:41.803Z,0.00
2023-03-26T02:20:41.796Z,0.00
2023-03-26T02:21:41.778Z,0.00
2023-03-26T02:22:41.776Z,0.00
2023-03-26T02:23:41.779Z,0.00
2023-03-26T02:24:41.751Z,0.00
2023-03-26T02:25:41.743Z,0.00
2023-03-26T02:26:41.730Z,0.00
2023-03-26T02:27:41.716Z,0.00
2023-03-26T02:28:41.722Z,0.00
2023-03-26T02:29:41.695Z,0.00
2023-03-26T02:30:41.689Z,0.00
2023-03-26T02:31:41.689Z,0.00
2023-03-26T02:32:41.697Z,0.00
2023-03-26T02:33:41.668Z,0.00
2023-03-26T02:34:41.657Z,0.00
2023-03-26T02:35:41.727Z,0.00
2023-03-26T02:36:41.683Z,0.00
2023-03-26T02:37:41.618Z,0.00
2023-03-26T02:38:41.618Z,0.00
2023-03-26T02:39:41.601Z,0.00
2023-03-26T02:40:41.626Z,0.00
2023-03-26T02:41:41.582Z,0.00
2023-03-26T02:42:41.569Z,0.00
2023-03-26T02:43:41.575Z,0.00
2023-03-26T02:44:41.550Z,0.00
2023-03-26T02:45:41.584Z,0.00
2023-03-26T02:46:41.527Z,0.00
2023-03-26T02:47:41.580Z,0.00
2023-03-26T02:48:41.528Z,0.00
2023-03-26T02:49:41.503Z,0.00
2023-03-26T02:50:41.485Z,0.00
2023-03-26T02:51:41.483Z,0.00
2023-03-26T02:52:41.470Z,0.00
2023-03-26T02:53:41.495Z,0.00
2023-03-26T02:54:41.452Z,0.00
2023-03-26T02:55:41.440Z,0.00
2023-03-26T02:56:41.445Z,0.00
2023-03-26T02:57:41.421Z,0.00
2023-03-26T02:58:41.425Z,0.00
2023-03-26T02:59:41.406Z,0.00
2023-03-26T03:00:41.394Z,0.00
2023-03-26T03:01:41.416Z,0.00
2023-03-26T03:02:41.471Z,0.00
2023-03-26T03:03:41.374Z,0.00
2023-03-26T03:04:41.354Z,0.00
2023-03-26T03:05:41.341Z,0.00
2023-03-26T03:06:41.337Z,0.00
2023-03-26T03:07:41.319Z,0.00
2023-03-26T03:08:41.318Z,0.00
2023-03-26T03:09:41.304Z,0.00
2023-03-26T03:10:41.291Z,0.00
2023-03-26T03:11:41.292Z,0.00
2023-03-26T03:12:41.270Z,0.00
2023-03-26T03:13:41.274Z,0.00
2023-03-26T03:14:41.251Z,0.00
2023-03-26T03:15:41.246Z,0.00
2023-03-26T03:16:41.288Z,0.00
2023-03-26T03:17:41.265Z,0.00
2023-03-26T03:18:41.227Z,0.00
2023-03-26T03:19:41.217Z,0.00
2023-03-26T03:20:41.277Z,0.00
2023-03-26T03:21:41.190Z,0.00
2023-03-26T03:22:41.185Z,0.00
2023-03-26T03:23:41.171Z,0.00
2023-03-26T03:24:41.166Z,0.00
2023-03-26T03:25:41.164Z,0.00
2023-03-26T03:26:41.135Z,0.00
2023-03-26T03:27:41.145Z,0.00
2023-03-26T03:28:41.116Z,0.00
2023-03-26T03:29:41.119Z,0.00
2023-03-26T03:30:41.122Z,0.00
2023-03-26T03:31:41.093Z,0.00
2023-03-26T03:32:41.108Z,0.00
2023-03-26T03:33:41.072Z,0.00
2023-03-26T03:34:41.070Z,0.00
2023-03-26T03:35:41.092Z,0.00
2023-03-26T03:36:41.047Z,0.00
2023-03-26T03:37:41.031Z,0.00
2023-03-26T03:38:41.017Z,0.00
2023-03-26T03:39:41.036Z,0.00
2023-03-26T03:40:40.993Z,0.00
2023-03-26T03:41:40.991Z,0.00
2023-03-26T03:42:40.973Z,0.00
2023-03-26T03:43:40.965Z,0.00
2023-03-26T03:44:40.970Z,0.00
2023-03-26T03:45:42.107Z,0.00
2023-03-26T03:46:42.130Z,0.00
2023-03-26T03:47:42.112Z,0.00
2023-03-26T03:48:42.039Z,0.00
2023-03-26T03:49:42.045Z,0.00
2023-03-26T03:50:42.062Z,0.00
2023-03-26T03:51:42.025Z,0.00
2023-03-26T03:52:42.004Z,0.00
2023-03-26T03:53:42.019Z,0.00
2023-03-26T03:54:41.996Z,0.00
2023-03-26T03:55:41.981Z,0.00
2023-03-26T03:56:41.981Z,0.00
2023-03-26T03:57:41.942Z,0.00
2023-03-26T03:58:41.943Z,0.00
2023-03-26T03:59:47.368Z,0.00
2023-03-26T04:00:41.933Z,0.00
2023-03-26T04:01:41.910Z,0.00
2023-03-26T04:02:41.987Z,0.00
2023-03-26T04:03:42.020Z,0.00
2023-03-26T04:04:41.934Z,0.00
2023-03-26T04:05:41.864Z,0.00
2023-03-26T04:06:41.871Z,0.00
2023-03-26T04:07:41.878Z,0.00
2023-03-26T04:08:41.835Z,0.00
2023-03-26T04:09:41.849Z,0.00
2023-03-26T04:10:41.818Z,0.00
2023-03-26T04:11:41.797Z,0.00
2023-03-26T04:12:41.790Z,0.00
2023-03-26T04:13:41.789Z,0.00
2023-03-26T04:14:41.784Z,0.00
2023-03-26T04:15:41.824Z,0.00
2023-03-26T04:16:41.747Z,0.00
2023-03-26T04:17:42.963Z,0.00
2023-03-26T04:18:41.735Z,0.00
2023-03-26T04:19:41.741Z,0.00
2023-03-26T04:20:41.743Z,0.00
2023-03-26T04:21:41.695Z,0.00
2023-03-26T04:22:41.714Z,0.00
2023-03-26T04:23:41.673Z,0.00
2023-03-26T04:24:41.670Z,0.00
2023-03-26T04:25:41.679Z,4.00
2023-03-26T04:26:41.652Z,8.00
2023-03-26T04:27:41.676Z,8.00
2023-03-26T04:28:41.629Z,0.00
2023-03-26T04:29:41.617Z,0.00
2023-03-26T04:30:41.610Z,0.00
2023-03-26T04:31:41.622Z,0.00
2023-03-26T04:32:41.607Z,0.00
2023-03-26T04:33:41.570Z,0.00
2023-03-26T04:34:41.579Z,0.00
2023-03-26T04:35:41.759Z,0.00
2023-03-26T04:36:41.552Z,0.00
2023-03-26T04:37:41.544Z,0.00
2023-03-26T04:38:41.534Z,0.00
2023-03-26T04:39:41.522Z,0.00
2023-03-26T04:40:41.517Z,0.00
2023-03-26T04:41:41.490Z,0.00
2023-03-26T04:42:41.532Z,0.00
2023-03-26T04:43:41.480Z,0.00
2023-03-26T04:44:41.485Z,4.00
2023-03-26T04:45:41.482Z,0.00
2023-03-26T04:46:41.473Z,4.00
2023-03-26T04:47:41.464Z,0.00
2023-03-26T04:48:41.423Z,4.00
2023-03-26T04:49:41.424Z,4.00
2023-03-26T04:50:41.422Z,4.00
2023-03-26T04:51:41.396Z,4.00
2023-03-26T04:52:43.273Z,4.00
2023-03-26T04:53:41.374Z,4.00
2023-03-26T04:54:41.505Z,8.00
2023-03-26T04:55:41.357Z,8.00
2023-03-26T04:56:41.351Z,8.00
2023-03-26T04:57:41.344Z,12.00
2023-03-26T04:58:41.331Z,12.00
2023-03-26T04:59:41.315Z,16.00
2023-03-26T05:00:41.356Z,20.00
2023-03-26T05:01:41.342Z,24.00
2023-03-26T05:02:41.328Z,28.00
2023-03-26T05:03:41.456Z,36.00
2023-03-26T05:04:41.281Z,44.00
2023-03-26T05:05:41.264Z,52.00
2023-03-26T05:06:41.240Z,56.00
2023-03-26T05:07:41.240Z,68.00
2023-03-26T05:08:41.222Z,76.00
2023-03-26T05:09:41.220Z,88.00
2023-03-26T05:10:41.219Z,100.00
2023-03-26T05:11:42.046Z,108.00
2023-03-26T05:12:41.181Z,120.00
2023-03-26T05:13:41.184Z,132.00
2023-03-26T05:14:41.160Z,148.00
2023-03-26T05:15:41.156Z,156.00
2023-03-26T05:16:41.212Z,172.00
2023-03-26T05:17:41.190Z,188.00
2023-03-26T05:18:41.116Z,200.00
2023-03-26T05:19:41.117Z,216.00
2023-03-26T05:20:41.118Z,236.00
2023-03-26T05:21:41.094Z,252.00
2023-03-26T05:22:41.094Z,272.00
2023-03-26T05:23:41.079Z,288.00
2023-03-26T05:24:41.076Z,308.00
2023-03-26T05:25:41.059Z,328.00
2023-03-26T05:26:41.054Z,348.00
2023-03-26T05:27:41.043Z,368.00
2023-03-26T05:28:41.021Z,384.00
2023-03-26T05:29:41.022Z,404.00
2023-03-26T05:30:41.023Z,420.00
2023-03-26T05:31:40.996Z,436.00
2023-03-26T05:32:41.048Z,464.00
2023-03-26T05:33:41.064Z,492.00
2023-03-26T05:34:40.972Z,524.00
2023-03-26T05:35:40.970Z,552.00
2023-03-26T05:36:40.936Z,588.00
2023-03-26T05:37:41.928Z,624.00
2023-03-26T05:38:40.919Z,648.00
2023-03-26T05:39:40.920Z,676.00
2023-03-26T05:40:40.925Z,712.00
2023-03-26T05:41:40.900Z,752.00
2023-03-26T05:42:40.883Z,792.00
2023-03-26T05:43:40.871Z,816.00
2023-03-26T05:44:40.874Z,808.00
2023-03-26T05:45:40.934Z,800.00
2023-03-26T05:46:40.847Z,820.00
2023-03-26T05:47:40.864Z,844.00
2023-03-26T05:48:40.823Z,876.00
2023-03-26T05:49:40.817Z,908.00
2023-03-26T05:50:40.819Z,944.00
2023-03-26T05:51:40.793Z,972.00
2023-03-26T05:52:40.790Z,1004.00
2023-03-26T05:53:40.779Z,1040.00
2023-03-26T05:54:40.771Z,1084.00
2023-03-26T05:55:40.792Z,1128.00
2023-03-26T05:56:40.750Z,1164.00
2023-03-26T05:57:40.736Z,1200.00
2023-03-26T05:58:40.719Z,1236.00
2023-03-26T05:59:40.727Z,1260.00
2023-03-26T06:00:40.715Z,1280.00
2023-03-26T06:01:40.697Z,1324.00
2023-03-26T06:02:40.714Z,1380.00
2023-03-26T06:03:40.735Z,1424.00
2023-03-26T06:04:40.822Z,1460.00
2023-03-26T06:05:40.670Z,1480.00
2023-03-26T06:06:40.642Z,1488.00
2023-03-26T06:07:40.640Z,1524.00
2023-03-26T06:08:40.641Z,1528.00
2023-03-26T06:09:40.630Z,1552.00
2023-03-26T06:10:40.608Z,1628.00
2023-03-26T06:11:40.608Z,1676.00
2023-03-26T06:12:40.589Z,1712.00
2023-03-26T06:13:40.573Z,1712.00
2023-03-26T06:14:40.564Z,1708.00
2023-03-26T06:15:40.579Z,1740.00
2023-03-26T06:16:40.570Z,1684.00
2023-03-26T06:17:40.621Z,1704.00
2023-03-26T06:18:40.594Z,1732.00
2023-03-26T06:19:40.518Z,1680.00
2023-03-26T06:20:40.507Z,1536.00
2023-03-26T06:21:40.516Z,1500.00
2023-03-26T06:22:40.490Z,1496.00
2023-03-26T06:23:40.475Z,1508.00
2023-03-26T06:24:40.496Z,1556.00
2023-03-26T06:25:40.455Z,1592.00
2023-03-26T06:26:40.449Z,1652.00
2023-03-26T06:27:41.440Z,1692.00
2023-03-26T06:28:40.428Z,1728.00
2023-03-26T06:29:40.410Z,1792.00
2023-03-26T06:30:40.413Z,1824.00
2023-03-26T06:31:40.451Z,1868.00
2023-03-26T06:32:40.412Z,1888.00
2023-03-26T06:33:40.377Z,1916.00
2023-03-26T06:34:40.362Z,1948.00
2023-03-26T06:35:40.366Z,1948.00
2023-03-26T06:36:40.354Z,1952.00
2023-03-26T06:37:40.335Z,1976.00
2023-03-26T06:38:40.331Z,1972.00
2023-03-26T06:39:40.320Z,2084.00
2023-03-26T06:40:40.305Z,1896.00
2023-03-26T06:41:40.312Z,1932.00
2023-03-26T06:43:08.832Z,2132.00
2023-03-26T06:43:41.277Z,2400.00
2023-03-26T06:44:40.270Z,2360.00
2023-03-26T06:45:40.249Z,2300.00
2023-03-26T06:46:40.331Z,2112.00
2023-03-26T06:47:40.247Z,2040.00
2023-03-26T06:48:40.232Z,1952.00
2023-03-26T06:49:40.213Z,1844.00
2023-03-26T06:50:40.207Z,1744.00
2023-03-26T06:51:40.206Z,1664.00
2023-03-26T06:52:40.189Z,1592.00
2023-03-26T06:53:40.170Z,1520.00
2023-03-26T06:54:40.164Z,1456.00
2023-03-26T06:55:40.164Z,1388.00
2023-03-26T06:56:40.173Z,1324.00
2023-03-26T06:57:40.140Z,1252.00
2023-03-26T06:58:40.125Z,1196.00
2023-03-26T06:59:40.118Z,1180.00
2023-03-26T07:00:40.145Z,1180.00
2023-03-26T07:01:40.167Z,1188.00
2023-03-26T07:02:40.114Z,1204.00
2023-03-26T07:03:40.101Z,1224.00
2023-03-26T07:04:40.062Z,1236.00
2023-03-26T07:05:40.057Z,1256.00
2023-03-26T07:06:40.055Z,1272.00
2023-03-26T07:07:45.837Z,1284.00
2023-03-26T07:08:41.024Z,1296.00
2023-03-26T07:09:40.010Z,1312.00
2023-03-26T07:10:40.012Z,1316.00
2023-03-26T07:11:40.004Z,1332.00
2023-03-26T07:12:39.997Z,1352.00
2023-03-26T07:13:39.987Z,1360.00
2023-03-26T07:14:39.962Z,1376.00
2023-03-26T07:15:39.960Z,1392.00
2023-03-26T07:16:39.987Z,1400.00
2023-03-26T07:17:39.971Z,1404.00
2023-03-26T07:18:39.927Z,1392.00
2023-03-26T07:19:39.913Z,1384.00
2023-03-26T07:20:39.909Z,1380.00
2023-03-26T07:21:39.910Z,1384.00
2023-03-26T07:22:39.905Z,1408.00
2023-03-26T07:23:39.871Z,1432.00
2023-03-26T07:24:39.892Z,1476.00
2023-03-26T07:25:39.864Z,1516.00
2023-03-26T07:26:39.844Z,1564.00
2023-03-26T07:27:39.858Z,1616.00
2023-03-26T07:28:39.836Z,1676.00
2023-03-26T07:29:39.816Z,1732.00
2023-03-26T07:30:39.818Z,1780.00
2023-03-26T07:31:39.855Z,1824.00
2023-03-26T07:32:39.868Z,1864.00
2023-03-26T07:33:39.784Z,1884.00
2023-03-26T07:34:39.779Z,1876.00
2023-03-26T07:35:39.826Z,1836.00
2023-03-26T07:36:39.748Z,1776.00
2023-03-26T07:37:39.755Z,1724.00
2023-03-26T07:38:39.741Z,1676.00
2023-03-26T07:39:39.722Z,1640.00
2023-03-26T07:40:39.714Z,1600.00
2023-03-26T07:41:39.700Z,1584.00
2023-03-26T07:42:39.700Z,1568.00
2023-03-26T07:43:39.688Z,1560.00
2023-03-26T07:44:39.672Z,1556.00
2023-03-26T07:45:39.708Z,1552.00
2023-03-26T07:46:39.656Z,1544.00
2023-03-26T07:47:39.644Z,1532.00
2023-03-26T07:48:39.637Z,1516.00
2023-03-26T07:49:39.613Z,1492.00
2023-03-26T07:50:39.609Z,1468.00
2023-03-26T07:51:39.597Z,1448.00
2023-03-26T07:52:39.655Z,1436.00
2023-03-26T07:53:39.588Z,1428.00
2023-03-26T07:54:39.572Z,1428.00
2023-03-26T07:55:39.565Z,1436.00
2023-03-26T07:56:39.678Z,1460.00
2023-03-26T07:57:39.605Z,1492.00
2023-03-26T07:58:39.540Z,1524.00
2023-03-26T07:59:39.559Z,1552.00
2023-03-26T08:00:39.521Z,1576.00
2023-03-26T08:01:39.511Z,1588.00
2023-03-26T08:02:39.534Z,1596.00
2023-03-26T08:03:39.611Z,1600.00
2023-03-26T08:04:39.583Z,1604.00
2023-03-26T08:05:39.473Z,1612.00
2023-03-26T08:06:39.577Z,1616.00
2023-03-26T08:07:39.458Z,1628.00
2023-03-26T08:08:39.443Z,1640.00
2023-03-26T08:09:39.421Z,1648.00
2023-03-26T08:10:39.418Z,1660.00
2023-03-26T08:11:39.401Z,1668.00
2023-03-26T08:12:39.389Z,1680.00
2023-03-26T08:13:39.405Z,1692.00
2023-03-26T08:14:39.370Z,1708.00
2023-03-26T08:15:39.386Z,1736.00
2023-03-26T08:16:39.350Z,1772.00
2023-03-26T08:17:39.411Z,1812.00
2023-03-26T08:18:39.334Z,1860.00
2023-03-26T08:19:39.325Z,1892.00
2023-03-26T08:20:39.309Z,1916.00
2023-03-26T08:21:39.300Z,1924.00
2023-03-26T08:22:39.291Z,1888.00
2023-03-26T08:23:50.501Z,1828.00
2023-03-26T08:24:40.268Z,1784.00
2023-03-26T08:25:39.310Z,1736.00
2023-03-26T08:26:39.258Z,1696.00
2023-03-26T08:27:39.234Z,1668.00
2023-03-26T08:28:39.233Z,1664.00
2023-03-26T08:29:39.245Z,1648.00
2023-03-26T08:30:39.225Z,1628.00
2023-03-26T08:31:39.275Z,1600.00
2023-03-26T08:32:39.210Z,1560.00
2023-03-26T08:33:39.213Z,1564.00
2023-03-26T08:34:39.157Z,1604.00
2023-03-26T08:35:39.220Z,1648.00
2023-03-26T08:36:39.150Z,1708.00
2023-03-26T08:37:39.141Z,1772.00
2023-03-26T08:38:39.138Z,1832.00
2023-03-26T08:39:39.113Z,1852.00
2023-03-26T08:40:39.104Z,1852.00
2023-03-26T08:41:39.089Z,1844.00
2023-03-26T08:42:39.077Z,1824.00
2023-03-26T08:43:39.084Z,1808.00
2023-03-26T08:44:39.072Z,1804.00
2023-03-26T08:45:39.057Z,1764.00
2023-03-26T08:46:39.055Z,1724.00
2023-03-26T08:47:39.059Z,1700.00
2023-03-26T08:48:39.038Z,1684.00
2023-03-26T08:49:39.018Z,1672.00
2023-03-26T08:50:39.010Z,1672.00
2023-03-26T08:51:38.997Z,1684.00
2023-03-26T08:52:38.995Z,1704.00
2023-03-26T08:53:38.988Z,1724.00
2023-03-26T08:54:38.978Z,1744.00
2023-03-26T08:55:38.963Z,1776.00
2023-03-26T08:56:39.131Z,1808.00
2023-03-26T08:57:38.938Z,1860.00
2023-03-26T08:58:38.949Z,1884.00
2023-03-26T08:59:38.915Z,1896.00
2023-03-26T09:00:38.914Z,1896.00
2023-03-26T09:01:38.975Z,1916.00
2023-03-26T09:02:38.917Z,1968.00
2023-03-26T09:03:38.905Z,2012.00
2023-03-26T09:04:38.874Z,2064.00
2023-03-26T09:05:38.860Z,2088.00
2023-03-26T09:06:38.848Z,2088.00
2023-03-26T09:07:38.886Z,2032.00
2023-03-26T09:08:38.825Z,1928.00
2023-03-26T09:09:39.827Z,1840.00
2023-03-26T09:10:38.813Z,1824.00
2023-03-26T09:11:38.796Z,1808.00
2023-03-26T09:12:38.783Z,1800.00
2023-03-26T09:13:38.775Z,1808.00
2023-03-26T09:14:38.771Z,1848.00
2023-03-26T09:15:38.758Z,1884.00
2023-03-26T09:16:38.797Z,1900.00
2023-03-26T09:17:38.769Z,1904.00
2023-03-26T09:18:38.727Z,1904.00
2023-03-26T09:19:38.720Z,1932.00
2023-03-26T09:20:38.697Z,1952.00
2023-03-26T09:21:38.705Z,1952.00
2023-03-26T09:22:38.688Z,1932.00
2023-03-26T09:23:38.677Z,1904.00
2023-03-26T09:24:38.698Z,1912.00
2023-03-26T09:25:38.646Z,1936.00
2023-03-26T09:26:39.639Z,1940.00
2023-03-26T09:27:38.633Z,1936.00
2023-03-26T09:28:38.620Z,1980.00
2023-03-26T09:29:38.624Z,2016.00
2023-03-26T09:30:38.621Z,2044.00
2023-03-26T09:31:38.663Z,2056.00
2023-03-26T09:32:38.658Z,2064.00
2023-03-26T09:33:38.581Z,2108.00
2023-03-26T09:34:38.625Z,2192.00
2023-03-26T09:35:38.596Z,2284.00
2023-03-26T09:36:38.707Z,2400.00
2023-03-26T09:37:56.229Z,2448.00
2023-03-26T09:38:39.545Z,2496.00
2023-03-26T09:39:38.557Z,2564.00
2023-03-26T09:40:38.531Z,2604.00
2023-03-26T09:41:38.511Z,2628.00
2023-03-26T09:42:38.508Z,2632.00
2023-03-26T09:43:38.484Z,2604.00
2023-03-26T09:44:38.505Z,2560.00
2023-03-26T09:45:38.513Z,2524.00
2023-03-26T09:46:38.450Z,2516.00
2023-03-26T09:47:38.478Z,2496.00
2023-03-26T09:48:38.453Z,2460.00
2023-03-26T09:49:38.436Z,2416.00
2023-03-26T09:50:38.427Z,2372.00
2023-03-26T09:51:38.428Z,2344.00
2023-03-26T09:52:38.410Z,2320.00
2023-03-26T09:53:38.411Z,2296.00
2023-03-26T09:54:38.406Z,2264.00
2023-03-26T09:55:38.381Z,2240.00
2023-03-26T09:56:39.496Z,2244.00
2023-03-26T09:57:39.371Z,2268.00
2023-03-26T09:58:38.336Z,2312.00
2023-03-26T09:59:38.348Z,2352.00
2023-03-26T10:00:38.339Z,2384.00
2023-03-26T10:01:38.410Z,2416.00
2023-03-26T10:02:46.107Z,2456.00
2023-03-26T10:03:39.268Z,2468.00
2023-03-26T10:04:38.402Z,2464.00
2023-03-26T10:05:38.256Z,2436.00
2023-03-26T10:06:38.258Z,2420.00
2023-03-26T10:07:38.254Z,2424.00
2023-03-26T10:08:38.237Z,2376.00
2023-03-26T10:09:38.231Z,2324.00
2023-03-26T10:10:38.213Z,2288.00
2023-03-26T10:11:38.200Z,2240.00
2023-03-26T10:12:38.253Z,2176.00
2023-03-26T10:13:38.185Z,2128.00
2023-03-26T10:14:38.174Z,2084.00
2023-03-26T10:15:38.160Z,2000.00
2023-03-26T10:16:38.197Z,1936.00
2023-03-26T10:17:38.200Z,1924.00
2023-03-26T10:18:38.134Z,1884.00
2023-03-26T10:19:39.053Z,1812.00
2023-03-26T10:20:38.161Z,1736.00
2023-03-26T10:21:38.154Z,1680.00
2023-03-26T10:22:38.144Z,1660.00
2023-03-26T10:23:38.129Z,1612.00
2023-03-26T10:24:38.098Z,1552.00
2023-03-26T10:25:38.098Z,1520.00
2023-03-26T10:26:38.098Z,1512.00
2023-03-26T10:27:38.155Z,1528.00
2023-03-26T10:28:38.051Z,1524.00
2023-03-26T10:29:38.069Z,1520.00
2023-03-26T10:30:38.113Z,1512.00
2023-03-26T10:31:38.033Z,1532.00
2023-03-26T10:32:38.162Z,1556.00
2023-03-26T10:33:38.012Z,1576.00
2023-03-26T10:34:37.998Z,1616.00
2023-03-26T10:35:38.070Z,1652.00
2023-03-26T10:36:37.975Z,1680.00
2023-03-26T10:37:37.984Z,1692.00
2023-03-26T10:38:37.968Z,1720.00
2023-03-26T10:39:39.434Z,1776.00
2023-03-26T10:40:38.965Z,1824.00
2023-03-26T10:41:37.912Z,1832.00
2023-03-26T10:42:37.903Z,1852.00
2023-03-26T10:43:37.894Z,1840.00
2023-03-26T10:44:37.885Z,1812.00
2023-03-26T10:45:37.927Z,1796.00
2023-03-26T10:46:37.900Z,1800.00
2023-03-26T10:47:37.933Z,1796.00
2023-03-26T10:48:37.855Z,1844.00
2023-03-26T10:49:37.897Z,1888.00
2023-03-26T10:50:37.856Z,1852.00
2023-03-26T10:51:37.857Z,1788.00
2023-03-26T10:52:37.875Z,1708.00
2023-03-26T10:53:37.835Z,1660.00
2023-03-26T10:54:37.805Z,1656.00
2023-03-26T10:55:37.810Z,1624.00
2023-03-26T10:56:37.816Z,1588.00
2023-03-26T10:57:37.782Z,1568.00
2023-03-26T10:58:48.462Z,1532.00
2023-03-26T10:59:38.762Z,1496.00
2023-03-26T11:00:37.771Z,1456.00
2023-03-26T11:01:37.787Z,1392.00
2023-03-26T11:02:37.738Z,1344.00
2023-03-26T11:03:37.714Z,1356.00
2023-03-26T11:04:37.708Z,1420.00
2023-03-26T11:05:37.737Z,1496.00
2023-03-26T11:06:37.686Z,1520.00
2023-03-26T11:07:37.672Z,1420.00
2023-03-26T11:08:37.651Z,1348.00
2023-03-26T11:09:37.657Z,1268.00
2023-03-26T11:10:37.649Z,1164.00
2023-03-26T11:11:37.621Z,1060.00
2023-03-26T11:12:37.596Z,972.00
2023-03-26T11:13:37.597Z,892.00
2023-03-26T11:14:37.588Z,996.00
2023-03-26T11:15:37.634Z,1180.00
2023-03-26T11:16:37.576Z,1244.00
2023-03-26T11:17:39.302Z,1304.00
2023-03-26T11:18:37.531Z,1320.00
2023-03-26T11:19:37.535Z,1316.00
2023-03-26T11:20:37.547Z,1292.00
2023-03-26T11:21:37.563Z,1272.00
2023-03-26T11:22:37.524Z,1260.00
2023-03-26T11:23:37.504Z,1236.00
2023-03-26T11:24:37.483Z,1208.00
2023-03-26T11:25:37.507Z,1200.00
2023-03-26T11:26:38.897Z,1196.00
2023-03-26T11:27:37.484Z,1192.00
2023-03-26T11:28:37.436Z,1184.00
2023-03-26T11:29:37.445Z,1184.00
2023-03-26T11:30:37.429Z,1192.00
2023-03-26T11:31:37.472Z,1204.00
2023-03-26T11:32:37.433Z,1212.00
2023-03-26T11:33:37.403Z,1240.00
2023-03-26T11:34:38.413Z,1288.00
2023-03-26T11:35:41.211Z,1316.00
2023-03-26T11:36:37.371Z,1336.00
2023-03-26T11:37:37.331Z,1352.00
2023-03-26T11:38:37.560Z,1372.00
2023-03-26T11:39:37.325Z,1416.00
2023-03-26T11:40:37.314Z,1456.00
2023-03-26T11:41:37.328Z,1496.00
2023-03-26T11:42:37.331Z,1536.00
2023-03-26T11:43:37.296Z,1564.00
2023-03-26T11:44:37.273Z,1592.00
2023-03-26T11:45:37.330Z,1584.00
2023-03-26T11:46:37.319Z,1576.00
2023-03-26T11:47:37.313Z,1572.00
2023-03-26T11:48:37.252Z,1564.00
2023-03-26T11:49:37.225Z,1552.00
2023-03-26T11:50:37.208Z,1528.00
2023-03-26T11:51:37.227Z,1512.00
2023-03-26T11:52:37.280Z,1472.00
2023-03-26T11:53:37.222Z,1440.00
2023-03-26T11:54:37.188Z,1432.00
2023-03-26T11:55:37.200Z,1412.00
2023-03-26T11:56:37.191Z,1400.00
2023-03-26T11:57:37.176Z,1352.00
2023-03-26T11:58:37.160Z,1292.00
2023-03-26T11:59:49.034Z,1236.00
2023-03-26T12:00:39.117Z,1192.00
2023-03-26T12:01:37.167Z,1132.00
2023-03-26T12:02:37.184Z,1080.00
2023-03-26T12:03:37.140Z,1028.00
2023-03-26T12:04:37.118Z,960.00
2023-03-26T12:05:37.067Z,924.00
2023-03-26T12:06:37.143Z,888.00
2023-03-26T12:07:37.020Z,856.00
2023-03-26T12:08:37.030Z,832.00
2023-03-26T12:09:37.011Z,844.00
2023-03-26T12:10:37.015Z,904.00
2023-03-26T12:11:37.023Z,1008.00
2023-03-26T12:12:38.006Z,1092.00
2023-03-26T12:13:37.002Z,1208.00
2023-03-26T12:14:36.975Z,1324.00
2023-03-26T12:15:36.951Z,1404.00
2023-03-26T12:16:36.967Z,1496.00
2023-03-26T12:17:36.914Z,1636.00
2023-03-26T12:18:36.911Z,1844.00
2023-03-26T12:19:36.905Z,2032.00
2023-03-26T12:20:36.918Z,2172.00
2023-03-26T12:21:36.907Z,2260.00
2023-03-26T12:22:36.859Z,2268.00
2023-03-26T12:23:36.860Z,2240.00
2023-03-26T12:24:36.865Z,2188.00
2023-03-26T12:25:36.853Z,2116.00
2023-03-26T12:26:36.899Z,2064.00
2023-03-26T12:27:36.803Z,2024.00
2023-03-26T12:28:36.821Z,2024.00
2023-03-26T12:29:36.797Z,1984.00
2023-03-26T12:30:36.876Z,1908.00
2023-03-26T12:31:36.846Z,1892.00
2023-03-26T12:32:45.845Z,1936.00
2023-03-26T12:33:38.751Z,1944.00
2023-03-26T12:34:36.732Z,2052.00
2023-03-26T12:35:36.831Z,2028.00
2023-03-26T12:36:36.762Z,1904.00